createdAt,value
2023-05-08T00:02:05.342Z,4.05
2023-05-08T00:04:34.935Z,4.25
2023-05-08T00:07:03.201Z,4.30
2023-05-08T00:09:31.383Z,3.35
2023-05-08T00:11:59.578Z,3.00
2023-05-08T00:14:27.810Z,3.83
2023-05-08T00:16:56.047Z,3.45
2023-05-08T00:19:24.614Z,4.68
2023-05-08T00:21:54.211Z,4.47
2023-05-08T00:24:22.711Z,3.53
2023-05-08T00:26:50.909Z,3.88
2023-05-08T00:29:19.139Z,5.32
2023-05-08T00:31:47.545Z,3.55
2023-05-08T00:34:15.883Z,4.18
2023-05-08T00:36:44.007Z,5.50
2023-05-08T00:39:13.844Z,3.92
2023-05-08T00:41:42.610Z,5.53
2023-05-08T00:44:10.807Z,4.53
2023-05-08T00:46:39.322Z,3.22
2023-05-08T00:49:07.884Z,5.10
2023-05-08T00:51:36.216Z,4.30
2023-05-08T00:54:05.085Z,5.40
2023-05-08T00:56:37.373Z,4.57
2023-05-08T00:59:09.419Z,4.80
2023-05-08T01:01:38.710Z,6.05
2023-05-08T01:04:07.580Z,4.50
2023-05-08T01:06:36.896Z,4.00
2023-05-08T01:09:05.409Z,4.30
2023-05-08T01:11:40.733Z,4.88
2023-05-08T01:14:18.561Z,5.05
2023-05-08T01:16:57.740Z,6.53
2023-05-08T01:19:56.547Z,2.97
2023-05-08T01:22:45.447Z,3.42
2023-05-08T01:25:44.639Z,3.20
2023-05-08T01:28:44.895Z,3.00
2023-05-08T01:31:26.155Z,2.75
2023-05-08T01:34:06.609Z,5.95
2023-05-08T01:36:42.618Z,4.70
2023-05-08T01:39:21.538Z,4.45
2023-05-08T01:41:58.246Z,5.30
2023-05-08T01:44:33.825Z,5.85
2023-05-08T01:47:08.955Z,4.72
2023-05-08T01:49:43.345Z,9.80
2023-05-08T01:52:19.705Z,4.93
2023-05-08T01:54:57.544Z,5.18
2023-05-08T01:57:30.322Z,4.30
2023-05-08T02:00:02.477Z,6.57
2023-05-08T02:02:32.520Z,3.95
2023-05-08T02:05:05.933Z,4.60
2023-05-08T02:07:38.005Z,4.30
2023-05-08T02:10:08.400Z,3.45
2023-05-08T02:12:39.036Z,2.95
2023-05-08T02:15:10.717Z,4.75
2023-05-08T02:17:41.007Z,4.82
2023-05-08T02:20:15.077Z,6.60
2023-05-08T02:22:46.467Z,4.90
2023-05-08T02:25:16.463Z,5.68
2023-05-08T02:27:47.021Z,3.28
2023-05-08T02:30:17.736Z,4.22
2023-05-08T02:32:47.885Z,4.85
2023-05-08T02:35:19.742Z,3.73
2023-05-08T02:37:53.053Z,4.28
2023-05-08T02:40:23.947Z,6.05
2023-05-08T02:42:52.275Z,5.20
2023-05-08T02:45:21.253Z,5.53
2023-05-08T02:47:55.593Z,5.68
2023-05-08T02:50:34.297Z,5.18
2023-05-08T02:53:06.118Z,5.10
2023-05-08T02:55:41.158Z,4.10
2023-05-08T02:58:18.767Z,4.38
2023-05-08T03:00:54.107Z,3.47
2023-05-08T03:03:28.042Z,4.90
2023-05-08T03:06:01.253Z,4.63
2023-05-08T03:08:32.618Z,4.80
2023-05-08T03:11:07.087Z,6.30
2023-05-08T03:13:40.236Z,8.75
2023-05-08T03:16:17.079Z,7.03
2023-05-08T03:18:52.659Z,5.90
2023-05-08T03:21:24.115Z,5.65
2023-05-08T03:23:54.449Z,6.40
2023-05-08T03:26:22.694Z,5.13
2023-05-08T03:28:52.502Z,7.95
2023-05-08T03:31:22.087Z,6.82
2023-05-08T03:33:55.283Z,4.82
2023-05-08T03:36:27.222Z,6.60
2023-05-08T03:38:55.591Z,5.60
2023-05-08T03:41:24.036Z,6.30
2023-05-08T03:43:52.859Z,8.48
2023-05-08T03:46:22.268Z,7.82
2023-05-08T03:48:51.727Z,8.60
2023-05-08T03:51:20.755Z,10.15
2023-05-08T03:53:50.356Z,10.40
2023-05-08T03:56:18.570Z,11.95
2023-05-08T03:58:53.032Z,12.82
2023-05-08T04:01:27.246Z,12.48
2023-05-08T04:04:04.354Z,10.20
2023-05-08T04:06:49.539Z,15.18
2023-05-08T04:09:27.697Z,13.23
2023-05-08T04:12:06.790Z,12.88
2023-05-08T04:14:44.326Z,13.02
2023-05-08T04:17:17.193Z,15.48
2023-05-08T04:19:48.383Z,13.27
2023-05-08T04:22:18.093Z,14.20
2023-05-08T04:24:49.339Z,11.80
2023-05-08T04:27:18.164Z,14.05
2023-05-08T04:29:46.544Z,14.63
2023-05-08T04:32:15.563Z,13.65
2023-05-08T04:34:44.048Z,18.63
2023-05-08T04:37:27.288Z,13.02
2023-05-08T04:39:56.948Z,13.88
2023-05-08T04:42:26.979Z,12.13
2023-05-08T04:44:55.893Z,14.88
2023-05-08T04:47:24.734Z,11.93
2023-05-08T04:49:53.054Z,14.38
2023-05-08T04:52:21.435Z,16.25
2023-05-08T04:54:49.665Z,15.88
2023-05-08T04:57:19.211Z,16.15
2023-05-08T04:59:47.558Z,13.40
2023-05-08T05:02:15.829Z,13.45
2023-05-08T05:04:44.048Z,13.95
2023-05-08T05:07:12.298Z,18.77
2023-05-08T05:09:40.515Z,13.27
2023-05-08T05:12:08.813Z,12.48
2023-05-08T05:14:38.441Z,15.13
2023-05-08T05:17:06.642Z,12.45
2023-05-08T05:19:34.922Z,14.23
2023-05-08T05:22:03.193Z,11.82
2023-05-08T05:24:31.502Z,16.02
2023-05-08T05:27:00.450Z,14.32
2023-05-08T05:29:28.745Z,12.70
2023-05-08T05:31:58.361Z,15.10
2023-05-08T05:34:26.653Z,14.82
2023-05-08T05:36:54.901Z,15.30
2023-05-08T05:39:23.357Z,14.40
2023-05-08T05:41:51.696Z,12.20
2023-05-08T05:44:20.101Z,12.40
2023-05-08T05:46:48.539Z,15.70
2023-05-08T05:49:18.162Z,16.38
2023-05-08T05:51:46.399Z,17.40
2023-05-08T05:54:15.122Z,15.63
2023-05-08T05:56:43.498Z,15.27
2023-05-08T05:59:11.650Z,19.63
2023-05-08T06:01:39.894Z,15.23
2023-05-08T06:04:08.219Z,16.05
2023-05-08T06:06:37.790Z,16.63
2023-05-08T06:09:07.088Z,17.45
2023-05-08T06:11:35.620Z,20.73
2023-05-08T06:14:03.838Z,19.23
2023-05-08T06:16:32.179Z,22.58
2023-05-08T06:19:00.441Z,16.23
2023-05-08T06:21:29.524Z,18.52
2023-05-08T06:23:59.078Z,20.80
2023-05-08T06:26:27.348Z,18.20
2023-05-08T06:28:55.612Z,19.15
2023-05-08T06:31:23.918Z,18.88
2023-05-08T06:33:52.188Z,17.58
2023-05-08T06:36:20.776Z,20.50
2023-05-08T06:38:48.978Z,20.05
2023-05-08T06:41:18.531Z,16.48
2023-05-08T06:43:46.852Z,20.80
2023-05-08T06:46:15.116Z,17.48
2023-05-08T06:48:43.310Z,17.08
2023-05-08T06:51:11.672Z,16.35
2023-05-08T06:53:39.869Z,17.10
2023-05-08T06:56:09.014Z,19.02
2023-05-08T06:58:38.685Z,18.95
2023-05-08T07:01:07.109Z,16.70
2023-05-08T07:03:35.381Z,16.52
2023-05-08T07:06:03.696Z,19.83
2023-05-08T07:08:32.382Z,20.85
2023-05-08T07:11:00.627Z,19.15
2023-05-08T07:13:29.021Z,23.70
2023-05-08T07:15:58.729Z,20.48
2023-05-08T07:18:27.031Z,22.52
2023-05-08T07:20:55.214Z,19.60
2023-05-08T07:23:23.469Z,21.13
2023-05-08T07:25:51.631Z,20.38
2023-05-08T07:28:19.907Z,19.60
2023-05-08T07:30:48.108Z,20.83
2023-05-08T07:33:17.959Z,20.05
2023-05-08T07:35:46.756Z,21.90
2023-05-08T07:38:14.976Z,21.58
2023-05-08T07:40:43.167Z,22.05
2023-05-08T07:43:11.546Z,18.58
2023-05-08T07:45:39.737Z,18.30
2023-05-08T07:48:08.981Z,19.42
2023-05-08T07:50:38.536Z,18.70
2023-05-08T07:53:06.828Z,19.45
2023-05-08T07:55:35.102Z,16.65
2023-05-08T07:58:03.312Z,19.48
2023-05-08T08:00:31.617Z,19.40
2023-05-08T08:02:59.964Z,18.77
2023-05-08T08:05:28.546Z,22.80
2023-05-08T08:07:58.155Z,18.35
2023-05-08T08:10:27.912Z,17.08
2023-05-08T08:12:56.193Z,19.02
2023-05-08T08:15:24.442Z,19.38
2023-05-08T08:17:52.692Z,19.42
2023-05-08T08:20:21.312Z,20.35
2023-05-08T08:22:49.548Z,20.50
2023-05-08T08:25:19.137Z,19.10
2023-05-08T08:27:47.567Z,19.88
2023-05-08T08:30:18.311Z,22.10
2023-05-08T08:32:47.508Z,23.70
2023-05-08T08:35:16.678Z,21.48
2023-05-08T08:37:45.674Z,18.65
2023-05-08T08:40:14.229Z,21.58
2023-05-08T08:42:43.816Z,21.30
2023-05-08T08:45:13.027Z,26.65
2023-05-08T08:47:44.294Z,27.30
2023-05-08T08:52:49.607Z,22.52
2023-05-08T08:55:19.355Z,21.45
2023-05-08T08:57:58.094Z,23.05
2023-05-08T09:00:32.091Z,23.27
2023-05-08T09:03:00.989Z,26.65
2023-05-08T09:05:30.616Z,23.95
2023-05-08T09:07:59.624Z,25.35
2023-05-08T09:10:27.885Z,29.52
2023-05-08T09:12:57.656Z,22.30
2023-05-08T09:15:25.954Z,30.35
2023-05-08T09:17:54.243Z,22.67
2023-05-08T09:20:23.673Z,25.55
2023-05-08T09:22:54.330Z,22.38
2023-05-08T09:25:22.903Z,21.08
2023-05-08T09:27:51.086Z,22.23
2023-05-08T09:30:20.702Z,19.38
2023-05-08T09:32:49.994Z,18.25
2023-05-08T09:35:18.326Z,17.77
2023-05-08T09:37:47.504Z,22.13
2023-05-08T09:40:18.377Z,18.95
2023-05-08T09:42:46.968Z,17.50
2023-05-08T09:45:31.045Z,20.25
2023-05-08T09:47:59.870Z,16.58
2023-05-08T09:50:28.272Z,16.40
2023-05-08T09:52:56.744Z,20.02
2023-05-08T09:55:24.953Z,20.83
2023-05-08T09:57:56.484Z,16.38
2023-05-08T10:00:26.144Z,21.55
2023-05-08T10:03:00.992Z,19.65
2023-05-08T10:05:31.810Z,19.38
2023-05-08T10:08:18.446Z,18.88
2023-05-08T10:10:47.261Z,20.60
2023-05-08T10:13:15.949Z,14.77
2023-05-08T10:15:45.841Z,12.98
2023-05-08T10:18:18.963Z,14.40
2023-05-08T10:20:49.517Z,10.90
2023-05-08T10:23:19.116Z,15.52
2023-05-08T10:25:49.681Z,12.15
2023-05-08T10:28:25.425Z,14.20
2023-05-08T10:30:55.588Z,13.98
2023-05-08T10:33:31.365Z,12.52
2023-05-08T10:36:00.093Z,13.18
2023-05-08T10:38:28.738Z,15.50
2023-05-08T10:40:58.548Z,15.73
2023-05-08T10:43:27.111Z,15.15
2023-05-08T10:45:57.663Z,15.77
2023-05-08T10:48:33.704Z,12.38
2023-05-08T10:51:13.946Z,14.30
2023-05-08T10:53:56.699Z,18.92
2023-05-08T10:56:28.041Z,16.02
2023-05-08T10:59:00.201Z,13.93
2023-05-08T11:01:28.542Z,14.88
2023-05-08T11:03:58.386Z,13.32
2023-05-08T11:06:46.611Z,12.32
2023-05-08T11:09:23.362Z,14.43
2023-05-08T11:12:09.660Z,12.15
2023-05-08T11:14:43.725Z,15.43
2023-05-08T11:17:12.330Z,10.57
2023-05-08T11:20:00.707Z,12.55
2023-05-08T11:22:32.687Z,12.32
2023-05-08T11:25:04.295Z,10.95
2023-05-08T11:27:40.901Z,12.48
2023-05-08T11:30:28.349Z,11.00
2023-05-08T11:33:33.297Z,11.10
2023-05-08T11:36:15.002Z,11.93
2023-05-08T11:38:44.287Z,15.65
2023-05-08T11:41:21.934Z,16.27
2023-05-08T11:44:22.008Z,14.95
2023-05-08T11:46:54.921Z,17.23
2023-05-08T11:49:29.094Z,17.13
2023-05-08T11:52:01.215Z,20.52
2023-05-08T11:54:32.101Z,16.52
2023-05-08T11:59:30.119Z,18.50
2023-05-08T12:02:07.932Z,20.30
2023-05-08T12:04:46.531Z,18.13
2023-05-08T12:07:17.095Z,24.55
2023-05-08T12:09:47.428Z,22.08
2023-05-08T12:12:15.593Z,17.48
2023-05-08T12:14:43.816Z,26.10
2023-05-08T12:17:12.147Z,22.10
2023-05-08T12:19:40.626Z,23.58
2023-05-08T12:22:10.782Z,22.38
2023-05-08T12:24:40.603Z,22.17
2023-05-08T12:27:09.219Z,22.23
2023-05-08T12:29:38.702Z,22.20
2023-05-08T12:32:07.251Z,25.20
2023-05-08T12:34:36.243Z,22.35
2023-05-08T12:37:05.471Z,20.95
2023-05-08T12:39:38.962Z,26.65
2023-05-08T12:42:07.281Z,23.83
2023-05-08T12:44:35.522Z,26.15
2023-05-08T12:47:06.103Z,22.45
2023-05-08T12:49:34.658Z,30.05
2023-05-08T12:52:05.287Z,26.73
2023-05-08T12:54:35.570Z,31.52
2023-05-08T12:57:11.111Z,31.38
2023-05-08T12:59:39.431Z,25.42
2023-05-08T13:02:14.899Z,45.28
2023-05-08T13:04:43.786Z,26.80
2023-05-08T13:07:15.324Z,35.95
2023-05-08T13:09:58.572Z,32.33
2023-05-08T13:12:28.195Z,24.10
2023-05-08T13:14:56.553Z,28.55
2023-05-08T13:17:24.864Z,29.42
2023-05-08T13:19:53.089Z,51.35
2023-05-08T13:22:23.222Z,29.65
2023-05-08T13:24:51.431Z,22.13
2023-05-08T13:27:20.286Z,23.98
2023-05-08T13:29:49.843Z,25.17
2023-05-08T13:32:18.329Z,25.95
2023-05-08T13:34:50.156Z,21.83
2023-05-08T13:37:19.979Z,21.17
2023-05-08T13:39:48.248Z,20.90
2023-05-08T13:42:16.502Z,18.05
2023-05-08T13:44:44.768Z,18.38
2023-05-08T13:47:14.391Z,18.83
2023-05-08T13:49:44.170Z,16.05
2023-05-08T13:52:12.422Z,14.48
2023-05-08T13:54:40.786Z,10.80
2023-05-08T13:57:09.192Z,19.25
2023-05-08T13:59:37.514Z,14.50
2023-05-08T14:02:06.012Z,15.55
2023-05-08T14:04:35.694Z,13.38
2023-05-08T14:07:03.923Z,14.85
2023-05-08T14:09:32.200Z,14.80
2023-05-08T14:12:00.436Z,17.92
2023-05-08T14:14:28.622Z,16.05
2023-05-08T14:16:56.820Z,13.48
2023-05-08T14:19:25.013Z,12.35
2023-05-08T14:21:54.605Z,11.48
2023-05-08T14:24:22.908Z,12.43
2023-05-08T14:26:51.166Z,33.00
2023-05-08T14:29:19.888Z,31.45
2023-05-08T14:31:48.172Z,19.27
2023-05-08T14:34:16.406Z,33.97
2023-05-08T14:36:44.650Z,36.28
2023-05-08T14:39:14.370Z,35.42
2023-05-08T14:41:51.215Z,38.45
2023-05-08T14:44:23.586Z,90.35
2023-05-08T14:46:51.790Z,138.13
2023-05-08T14:49:32.883Z,15.80
2023-05-08T14:52:06.552Z,32.08
2023-05-08T14:54:36.286Z,41.03
2023-05-08T14:57:04.646Z,25.52
2023-05-08T14:59:32.833Z,18.75
2023-05-08T15:02:01.218Z,15.73
2023-05-08T15:04:29.572Z,14.32
2023-05-08T15:06:57.792Z,11.07
2023-05-08T15:09:26.000Z,6.32
2023-05-08T15:11:55.713Z,3.67
2023-05-08T15:14:24.458Z,4.30
2023-05-08T15:16:52.675Z,4.55
2023-05-08T15:19:20.939Z,3.90
2023-05-08T15:21:49.171Z,2.97
2023-05-08T15:24:17.416Z,2.65
2023-05-08T15:26:45.650Z,3.17
2023-05-08T15:29:15.186Z,3.97
2023-05-08T15:31:43.445Z,2.78
2023-05-08T15:34:14.001Z,2.55
2023-05-08T15:36:44.532Z,5.75
2023-05-08T15:39:12.792Z,3.97
2023-05-08T15:41:41.369Z,3.03
2023-05-08T15:44:09.648Z,2.35
2023-05-08T15:46:39.212Z,1.38
2023-05-08T15:49:07.386Z,1.95
2023-05-08T15:51:35.618Z,2.10
2023-05-08T15:54:03.979Z,2.00
2023-05-08T15:56:32.710Z,2.20
2023-05-08T15:59:00.971Z,54.88
2023-05-08T16:01:29.163Z,19.60
2023-05-08T16:03:58.778Z,38.15
2023-05-08T16:06:27.119Z,41.28
2023-05-08T16:08:55.318Z,7.57
2023-05-08T16:11:23.622Z,4.90
2023-05-08T16:13:51.891Z,3.63
2023-05-08T16:16:20.090Z,3.83
2023-05-08T16:18:48.411Z,7.18
2023-05-08T16:21:18.064Z,5.70
2023-05-08T16:23:46.286Z,9.68
2023-05-08T16:26:16.493Z,5.68
2023-05-08T16:28:44.773Z,6.10
2023-05-08T16:31:12.999Z,6.40
2023-05-08T16:33:41.295Z,8.63
2023-05-08T16:36:10.214Z,7.25
2023-05-08T16:38:42.432Z,6.93
2023-05-08T16:41:12.357Z,4.78
2023-05-08T16:43:40.641Z,6.65
2023-05-08T16:46:09.087Z,7.93
2023-05-08T16:48:37.366Z,7.70
2023-05-08T16:51:05.734Z,7.40
2023-05-08T16:53:33.954Z,6.28
2023-05-08T16:56:03.628Z,8.27
2023-05-08T16:58:31.901Z,12.00
2023-05-08T17:01:00.187Z,8.43
2023-05-08T17:03:28.511Z,7.32
2023-05-08T17:05:56.883Z,6.88
2023-05-08T17:08:25.090Z,7.95
2023-05-08T17:10:54.251Z,5.75
2023-05-08T17:13:23.993Z,7.25
2023-05-08T17:15:52.611Z,10.40
2023-05-08T17:18:21.186Z,7.72
2023-05-08T17:20:49.607Z,6.55
2023-05-08T17:23:17.904Z,9.68
2023-05-08T17:25:46.141Z,25.80
2023-05-08T17:28:14.367Z,35.35
2023-05-08T17:30:45.358Z,15.88
2023-05-08T17:33:14.583Z,7.82
2023-05-08T17:35:42.845Z,23.00
2023-05-08T17:38:11.045Z,21.65
2023-05-08T17:40:40.037Z,8.70
2023-05-08T17:43:08.665Z,7.07
2023-05-08T17:45:36.951Z,6.00
2023-05-08T17:48:07.139Z,6.25
2023-05-08T17:50:39.337Z,6.50
2023-05-08T17:53:07.666Z,7.90
2023-05-08T17:55:35.966Z,5.20
2023-05-08T17:58:04.202Z,5.35
2023-05-08T18:00:32.518Z,5.10
2023-05-08T18:03:01.096Z,3.70
2023-05-08T18:05:30.965Z,4.03
2023-05-08T18:07:59.415Z,3.78
2023-05-08T18:10:27.590Z,4.47
2023-05-08T18:12:55.880Z,5.05
2023-05-08T18:15:24.244Z,4.93
2023-05-08T18:17:53.566Z,17.85
2023-05-08T18:20:22.077Z,4.03
2023-05-08T18:22:51.756Z,3.80
2023-05-08T18:25:20.632Z,2.60
2023-05-08T18:27:50.064Z,3.15
2023-05-08T18:30:18.765Z,3.33
2023-05-08T18:32:47.022Z,3.95
2023-05-08T18:35:15.324Z,3.50
2023-05-08T18:37:43.578Z,4.20
2023-05-08T18:40:14.650Z,3.13
2023-05-08T18:42:43.160Z,13.43
2023-05-08T18:45:12.884Z,41.33
2023-05-08T18:47:41.191Z,43.25
2023-05-08T18:50:11.239Z,18.85
2023-05-08T18:52:40.700Z,5.83
2023-05-08T18:55:10.018Z,3.63
2023-05-08T18:57:39.615Z,3.67
2023-05-08T19:00:09.661Z,4.20
2023-05-08T19:02:37.996Z,3.37
2023-05-08T19:05:07.725Z,5.75
2023-05-08T19:07:36.323Z,5.18
2023-05-08T19:10:05.571Z,4.95
2023-05-08T19:12:33.910Z,4.20
2023-05-08T19:15:03.653Z,3.15
2023-05-08T19:17:32.049Z,4.47
2023-05-08T19:20:00.476Z,10.18
2023-05-08T19:22:28.856Z,63.83
2023-05-08T19:24:57.172Z,11.88
2023-05-08T19:27:26.176Z,7.40
2023-05-08T19:29:54.452Z,7.22
2023-05-08T19:32:24.286Z,8.93
2023-05-08T19:34:53.563Z,5.93
2023-05-08T19:37:21.804Z,7.10
2023-05-08T19:39:50.071Z,6.82
2023-05-08T19:42:18.331Z,5.10
2023-05-08T19:44:46.646Z,5.65
2023-05-08T19:47:15.017Z,4.72
2023-05-08T19:49:44.651Z,4.07
2023-05-08T19:52:13.245Z,17.60
2023-05-08T19:54:42.752Z,53.78
2023-05-08T19:57:11.281Z,11.52
2023-05-08T19:59:39.502Z,6.50
2023-05-08T20:02:08.281Z,4.35
2023-05-08T20:04:48.608Z,5.15
2023-05-08T20:07:26.378Z,3.72
2023-05-08T20:09:54.668Z,4.22
2023-05-08T20:12:22.986Z,4.30
2023-05-08T20:14:52.937Z,5.82
2023-05-08T20:17:21.375Z,4.53
2023-05-08T20:19:49.705Z,4.82
2023-05-08T20:22:18.091Z,5.28
2023-05-08T20:24:47.723Z,75.40
2023-05-08T20:27:16.029Z,216.07
2023-05-08T20:29:45.318Z,76.18
2023-05-08T20:32:16.310Z,20.88
2023-05-08T20:34:45.129Z,9.63
2023-05-08T20:37:13.750Z,4.72
2023-05-08T20:39:42.142Z,5.20
2023-05-08T20:42:12.972Z,5.40
2023-05-08T20:44:41.332Z,4.57
2023-05-08T20:47:09.693Z,4.70
2023-05-08T20:49:38.061Z,4.45
2023-05-08T20:52:06.675Z,5.45
2023-05-08T20:54:34.974Z,4.32
2023-05-08T20:57:03.196Z,5.65
2023-05-08T20:59:32.846Z,4.45
2023-05-08T21:02:01.074Z,4.72
2023-05-08T21:04:29.609Z,5.72
2023-05-08T21:06:58.782Z,4.25
2023-05-08T21:09:26.995Z,7.15
2023-05-08T21:11:55.265Z,5.65
2023-05-08T21:14:23.650Z,5.80
2023-05-08T21:16:54.077Z,7.75
2023-05-08T21:19:22.657Z,4.70
2023-05-08T21:21:51.045Z,11.18
2023-05-08T21:24:19.437Z,5.78
2023-05-08T21:26:47.642Z,7.30
2023-05-08T21:29:15.930Z,7.75
2023-05-08T21:31:44.292Z,5.25
2023-05-08T21:34:15.139Z,5.30
2023-05-08T21:36:43.404Z,5.88
2023-05-08T21:39:11.582Z,13.10
2023-05-08T21:41:39.854Z,4.55
2023-05-08T21:44:08.132Z,5.50
2023-05-08T21:46:36.426Z,4.57
2023-05-08T21:49:05.100Z,5.32
2023-05-08T21:51:35.103Z,4.80
2023-05-08T21:54:03.385Z,4.53
2023-05-08T21:56:31.614Z,3.78
2023-05-08T21:58:59.839Z,6.50
2023-05-08T22:01:28.144Z,6.32
2023-05-08T22:03:59.323Z,6.38
2023-05-08T22:06:27.646Z,7.10
2023-05-08T22:08:57.216Z,7.88
2023-05-08T22:11:25.902Z,9.40
2023-05-08T22:13:54.083Z,11.13
2023-05-08T22:16:22.370Z,8.75
2023-05-08T22:18:50.642Z,10.27
2023-05-08T22:21:18.834Z,11.05
2023-05-08T22:23:47.078Z,10.73
2023-05-08T22:26:16.650Z,10.70
2023-05-08T22:28:45.093Z,10.80
2023-05-08T22:31:14.400Z,12.68
2023-05-08T22:33:42.635Z,12.43
2023-05-08T22:36:11.539Z,16.48
2023-05-08T22:38:40.581Z,18.08
2023-05-08T22:41:09.175Z,19.25
2023-05-08T22:43:38.984Z,19.50
2023-05-08T22:46:07.729Z,19.70
2023-05-08T22:48:36.192Z,23.42
2023-05-08T22:51:04.896Z,22.83
2023-05-08T22:53:33.126Z,18.83
2023-05-08T22:56:01.326Z,25.23
2023-05-08T22:58:29.577Z,22.00
2023-05-08T23:00:59.712Z,23.02
2023-05-08T23:03:28.193Z,24.38
2023-05-08T23:05:56.496Z,29.35
2023-05-08T23:08:24.769Z,23.77
2023-05-08T23:10:52.943Z,22.08
2023-05-08T23:13:21.156Z,27.40
2023-05-08T23:15:49.428Z,22.90
2023-05-08T23:18:18.993Z,23.77
2023-05-08T23:20:47.187Z,26.65
2023-05-08T23:23:15.358Z,28.02
2023-05-08T23:25:44.570Z,21.33
2023-05-08T23:28:12.758Z,28.55
2023-05-08T23:30:40.953Z,23.90
2023-05-08T23:33:10.047Z,26.10
2023-05-08T23:35:39.655Z,26.17
2023-05-08T23:38:07.858Z,24.92
2023-05-08T23:40:36.090Z,25.83
2023-05-08T23:43:04.715Z,23.02
2023-05-08T23:45:32.997Z,27.83
2023-05-08T23:48:01.359Z,23.55
2023-05-08T23:50:29.688Z,26.95
2023-05-08T23:52:59.230Z,25.00
2023-05-08T23:55:27.499Z,24.52
2023-05-08T23:57:55.665Z,28.25
